Barbeau, Michigan
Current Conditions -  °F | °C
As of 8:15 PM on Friday 28 Nov 2014 (Local Time) from KCIU Reporting Station
Overcast Overcast  
Wind Chill:   Ceiling: 3200
Heat Index: 19°   Visibility: 10mi
Dew Point: 18°   Wind: 8mph
Humidity: 93%   Direction: 110°ESE
Pressure: 30.05"   Gusts: NA
Location:  46.29°N, 84.28°W
Report Text: KCIU 290115Z AUTO 11007KT 10SM FEW020 FEW026 OVC032 M07/M08 A3005 RMK AO1
Loading
Personal Weather Stations






























Interactive Weather Map New forecast layout! Learn more

10-Day Weather Forecast

Advertisements
Track Severe Weather on mobile